Time;durP1;ratioP1;P1;durP2;ratioP2;P2;SDS_P1;SDS_P2;PMS_P1;PMS_P2;Temp;Humidity;BMP_temperature;BMP_pressure;BME280_temperature;BME280_humidity;BME280_pressure;Samples;Min_cycle;Max_cycle;Signal;HPM_P1;HPM_P2
2021/06/14 00:00:23;;;;;;;4.50;3.55;;;16.00;93.00;;;;;;5034619;28;20262;-41
2021/06/14 00:02:52;;;;;;;4.57;4.15;;;16.00;93.10;;;;;;5034417;28;20633;-41
2021/06/14 00:05:30;;;;;;;4.00;3.55;;;16.00;93.30;;;;;;5034386;28;20303;-41
2021/06/14 00:08:00;;;;;;;4.50;3.17;;;15.90;93.50;;;;;;5034589;28;20209;-43
2021/06/14 00:10:31;;;;;;;4.18;3.78;;;15.90;93.70;;;;;;5034678;28;20216;-41
2021/06/14 00:12:59;;;;;;;5.53;3.60;;;15.80;93.90;;;;;;5034716;28;20209;-41
2021/06/14 00:15:28;;;;;;;5.13;4.05;;;15.80;94.20;;;;;;5034289;28;20243;-41
2021/06/14 00:17:56;;;;;;;5.22;4.13;;;15.70;94.40;;;;;;5033837;28;20312;-41
2021/06/14 00:20:25;;;;;;;6.03;3.88;;;15.70;94.60;;;;;;5033944;28;20659;-41
2021/06/14 00:22:54;;;;;;;5.60;4.07;;;15.60;94.80;;;;;;5034120;28;20212;-42
2021/06/14 00:25:26;;;;;;;6.60;3.90;;;15.50;95.10;;;;;;5034233;28;20687;-41
2021/06/14 00:27:55;;;;;;;6.05;3.85;;;15.50;95.50;;;;;;5034124;28;20623;-41
2021/06/14 00:30:27;;;;;;;4.93;3.75;;;15.50;95.60;;;;;;5034101;28;20209;-41
2021/06/14 00:32:54;;;;;;;4.70;3.65;;;15.40;95.70;;;;;;5034291;28;20270;-40
2021/06/14 00:35:23;;;;;;;4.32;3.92;;;15.40;96.00;;;;;;5034375;28;20291;-41
2021/06/14 00:37:51;;;;;;;8.15;3.75;;;15.30;96.20;;;;;;5033899;28;20232;-41
2021/06/14 00:40:19;;;;;;;3.97;3.67;;;15.30;96.30;;;;;;5033956;28;20614;-42
2021/06/14 00:42:48;;;;;;;4.25;3.85;;;15.30;96.40;;;;;;5033698;28;20505;-41
2021/06/14 00:45:20;;;;;;;5.47;3.95;;;15.30;96.30;;;;;;5033748;28;20303;-41
2021/06/14 00:47:48;;;;;;;3.83;3.53;;;15.30;96.30;;;;;;5034200;28;20240;-41
2021/06/14 00:50:20;;;;;;;4.57;3.72;;;15.30;96.30;;;;;;5034484;28;20299;-40
2021/06/14 00:52:49;;;;;;;8.63;4.20;;;15.30;96.50;;;;;;5033797;28;20243;-41
2021/06/14 00:55:19;;;;;;;5.20;4.45;;;15.30;96.60;;;;;;5033939;28;20571;-41
2021/06/14 00:57:48;;;;;;;5.20;3.97;;;15.20;96.70;;;;;;5033532;28;20339;-41
2021/06/14 01:00:17;;;;;;;4.03;3.42;;;15.20;96.80;;;;;;5033791;28;20316;-41
2021/06/14 01:02:45;;;;;;;7.43;3.90;;;15.20;96.80;;;;;;5033721;28;20287;-41
2021/06/14 01:05:14;;;;;;;4.63;4.07;;;15.10;97.00;;;;;;5033550;28;20205;-40
2021/06/14 01:07:42;;;;;;;6.13;4.05;;;15.10;97.10;;;;;;5033714;28;20263;-41
2021/06/14 01:10:14;;;;;;;4.47;3.92;;;15.10;97.20;;;;;;5033296;28;20287;-41
2021/06/14 01:12:56;;;;;;;4.32;3.92;;;15.10;97.30;;;;;;5033742;28;20753;-40
2021/06/14 01:15:29;;;;;;;5.15;3.80;;;15.10;97.30;;;;;;5036022;28;20551;-41
2021/06/14 01:18:00;;;;;;;4.07;3.72;;;15.00;97.30;;;;;;5033302;28;20232;-41
2021/06/14 01:20:51;;;;;;;6.68;4.55;;;15.00;97.50;;;;;;5032935;28;20240;-41
2021/06/14 01:23:31;;;;;;;4.97;3.78;;;14.90;97.60;;;;;;5033168;28;20209;-41
2021/06/14 01:26:02;;;;;;;5.18;4.10;;;14.80;97.80;;;;;;5033172;28;20295;-43
2021/06/14 01:28:33;;;;;;;6.65;3.95;;;14.70;97.90;;;;;;5032865;28;20275;-41
2021/06/14 01:31:02;;;;;;;5.60;4.53;;;14.70;98.00;;;;;;5032558;28;20208;-41
2021/06/14 01:33:33;;;;;;;5.55;4.38;;;14.70;98.10;;;;;;5032927;28;20209;-40
2021/06/14 01:36:06;;;;;;;4.93;4.43;;;14.70;98.20;;;;;;5032181;28;20244;-41
2021/06/14 01:38:36;;;;;;;6.15;4.10;;;14.60;98.30;;;;;;5032145;28;20240;-41
2021/06/14 01:41:07;;;;;;;6.82;4.10;;;14.50;98.40;;;;;;5032629;28;20411;-41
2021/06/14 01:43:40;;;;;;;5.57;4.03;;;14.50;98.60;;;;;;5032714;28;20248;-41
2021/06/14 01:46:09;;;;;;;5.68;4.47;;;14.40;98.80;;;;;;5032508;28;20634;-41
2021/06/14 01:48:40;;;;;;;5.45;4.70;;;14.30;98.90;;;;;;5032656;28;20228;-41
2021/06/14 01:51:11;;;;;;;5.47;4.97;;;14.30;99.10;;;;;;5032557;28;20209;-41
2021/06/14 01:53:40;;;;;;;5.57;4.57;;;14.30;99.20;;;;;;5032583;28;20649;-41
2021/06/14 01:56:09;;;;;;;7.25;5.05;;;14.30;99.50;;;;;;5032216;28;20296;-41
2021/06/14 01:58:42;;;;;;;4.30;3.90;;;14.30;99.60;;;;;;5032286;28;20643;-43
2021/06/14 02:01:10;;;;;;;7.68;4.75;;;14.30;99.60;;;;;;5032659;28;20237;-41
2021/06/14 02:03:39;;;;;;;5.38;4.13;;;14.30;99.70;;;;;;5032496;28;20216;-41
2021/06/14 02:06:08;;;;;;;6.63;4.55;;;14.30;99.90;;;;;;5032570;28;20300;-41
2021/06/14 02:08:37;;;;;;;5.15;4.63;;;14.30;99.90;;;;;;5032248;28;20271;-41
2021/06/14 02:11:05;;;;;;;5.43;4.82;;;14.30;99.90;;;;;;5032260;28;20215;-41
2021/06/14 02:13:33;;;;;;;5.40;3.88;;;14.30;99.90;;;;;;5032494;28;20208;-42
2021/06/14 02:16:02;;;;;;;4.63;4.13;;;14.30;99.90;;;;;;5031968;28;20248;-43
2021/06/14 02:18:30;;;;;;;6.13;3.90;;;14.30;99.90;;;;;;5032172;28;20291;-43
2021/06/14 02:20:58;;;;;;;3.95;3.65;;;14.30;99.90;;;;;;5031893;28;20240;-43
2021/06/14 02:23:26;;;;;;;5.97;3.92;;;14.30;99.80;;;;;;5032492;28;20212;-41
2021/06/14 02:25:54;;;;;;;7.82;4.25;;;14.30;99.80;;;;;;5031956;28;20212;-41
2021/06/14 02:28:22;;;;;;;5.35;3.83;;;14.30;99.60;;;;;;5032083;28;20315;-44
2021/06/14 02:30:51;;;;;;;5.53;4.00;;;14.30;99.50;;;;;;5031857;28;20303;-43
2021/06/14 02:33:22;;;;;;;4.55;4.15;;;14.20;99.40;;;;;;5032151;28;20266;-41
2021/06/14 02:35:50;;;;;;;4.70;4.30;;;14.20;99.40;;;;;;5032010;28;20311;-41
2021/06/14 02:38:22;;;;;;;5.00;4.35;;;14.10;99.30;;;;;;5033617;28;20299;-41
2021/06/14 02:40:51;;;;;;;4.88;4.10;;;14.20;99.20;;;;;;5032530;28;20585;-42
2021/06/14 02:43:22;;;;;;;5.38;3.75;;;14.10;99.20;;;;;;5032150;28;20601;-40
2021/06/14 02:45:51;;;;;;;3.67;3.38;;;14.10;99.20;;;;;;5031771;28;20632;-39
2021/06/14 02:48:22;;;;;;;5.15;3.80;;;14.10;99.20;;;;;;5031732;28;20236;-39
2021/06/14 02:50:51;;;;;;;5.47;4.07;;;14.10;99.10;;;;;;5031863;28;20306;-46
2021/06/14 02:53:23;;;;;;;7.80;4.07;;;14.10;99.10;;;;;;5031839;28;20303;-39
2021/06/14 02:55:55;;;;;;;7.10;4.03;;;14.00;99.10;;;;;;5031978;28;20295;-40
2021/06/14 02:58:27;;;;;;;4.10;3.78;;;14.00;99.00;;;;;;5032173;28;20205;-40
2021/06/14 03:00:55;;;;;;;6.47;3.90;;;14.00;99.00;;;;;;5031875;28;20219;-40
2021/06/14 03:03:25;;;;;;;4.97;4.47;;;14.00;99.00;;;;;;5031641;28;20499;-40
2021/06/14 03:05:54;;;;;;;6.25;4.28;;;13.90;99.00;;;;;;5031823;28;20642;-40
2021/06/14 03:08:23;;;;;;;5.75;4.20;;;13.90;99.10;;;;;;5031505;28;20224;-43
2021/06/14 03:10:51;;;;;;;4.40;4.00;;;13.80;99.30;;;;;;5031538;28;20635;-39
2021/06/14 03:13:20;;;;;;;5.90;4.50;;;13.80;99.30;;;;;;5031621;28;20307;-40
2021/06/14 03:15:48;;;;;;;6.80;4.57;;;13.80;99.30;;;;;;5031560;28;20420;-40
2021/06/14 03:18:18;;;;;;;4.63;4.22;;;13.80;99.20;;;;;;5031875;28;20452;-40
2021/06/14 03:20:48;;;;;;;6.93;4.18;;;13.80;99.10;;;;;;5031846;28;20247;-41
2021/06/14 03:23:17;;;;;;;4.78;4.25;;;13.80;99.10;;;;;;5031575;28;20245;-40
2021/06/14 03:25:44;;;;;;;4.28;3.90;;;13.80;99.10;;;;;;5031684;28;20316;-40
2021/06/14 03:28:15;;;;;;;3.92;3.63;;;13.80;99.10;;;;;;5031387;28;20231;-40
2021/06/14 03:30:44;;;;;;;6.47;4.28;;;13.80;99.10;;;;;;5031707;28;20300;-41
2021/06/14 03:33:17;;;;;;;4.75;3.85;;;13.80;99.10;;;;;;5031582;28;20213;-43
2021/06/14 03:35:47;;;;;;;7.90;4.25;;;13.70;99.20;;;;;;5031394;28;20248;-40
2021/06/14 03:38:15;;;;;;;5.30;3.88;;;13.70;99.30;;;;;;5031666;28;20244;-40
2021/06/14 03:40:43;;;;;;;7.82;4.70;;;13.70;99.30;;;;;;5032088;28;20303;-40
2021/06/14 03:43:11;;;;;;;5.18;4.25;;;13.70;99.30;;;;;;5031514;28;20291;-42
2021/06/14 03:45:39;;;;;;;6.43;4.50;;;13.60;99.30;;;;;;5031911;28;20209;-41
2021/06/14 03:48:07;;;;;;;18.98;4.78;;;13.60;99.30;;;;;;5031592;28;20215;-41
2021/06/14 03:50:35;;;;;;;4.55;4.07;;;13.60;99.30;;;;;;5031321;28;20229;-41
2021/06/14 03:53:06;;;;;;;7.13;4.68;;;13.70;99.40;;;;;;5032873;28;20208;-40
2021/06/14 03:55:34;;;;;;;6.72;4.32;;;13.80;99.30;;;;;;5034902;28;20299;-40
2021/06/14 03:58:02;;;;;;;9.60;4.32;;;13.80;99.20;;;;;;5034681;28;20205;-40
2021/06/14 04:00:30;;;;;;;7.32;4.57;;;13.90;99.10;;;;;;5035856;28;20300;-41
2021/06/14 04:02:58;;;;;;;4.95;4.43;;;14.00;99.10;;;;;;5035169;28;20212;-42
2021/06/14 04:05:27;;;;;;;6.95;4.82;;;14.00;99.10;;;;;;5035777;28;20209;-43
2021/06/14 04:07:55;;;;;;;7.22;3.88;;;14.10;98.90;;;;;;5035186;28;20255;-43
2021/06/14 04:10:25;;;;;;;5.72;4.20;;;14.20;98.80;;;;;;5034603;28;20239;-41
2021/06/14 04:12:53;;;;;;;7.68;4.78;;;14.30;98.60;;;;;;5034860;28;20263;-41
2021/06/14 04:15:21;;;;;;;6.68;4.40;;;14.40;98.50;;;;;;5034547;28;20212;-43
2021/06/14 04:17:48;;;;;;;6.18;4.57;;;14.40;98.30;;;;;;5034112;28;20739;-40
2021/06/14 04:20:17;;;;;;;7.70;4.00;;;14.60;98.20;;;;;;5034383;28;20759;-41
2021/06/14 04:22:46;;;;;;;6.60;4.18;;;14.70;98.00;;;;;;5034486;28;20261;-41
2021/06/14 04:25:14;;;;;;;5.85;4.47;;;14.80;97.80;;;;;;5034643;28;20688;-40
2021/06/14 04:27:44;;;;;;;4.93;4.25;;;14.90;97.70;;;;;;5034159;28;20212;-40
2021/06/14 04:30:15;;;;;;;5.40;4.07;;;15.00;97.60;;;;;;5033195;28;20239;-40
2021/06/14 04:32:44;;;;;;;6.68;4.10;;;15.00;97.40;;;;;;5033553;28;20204;-42
2021/06/14 04:35:13;;;;;;;6.95;4.53;;;15.10;97.20;;;;;;5034127;28;20613;-40
2021/06/14 04:37:41;;;;;;;9.23;4.78;;;15.20;97.10;;;;;;5034236;28;20288;-40
2021/06/14 04:40:09;;;;;;;6.55;4.03;;;15.20;97.00;;;;;;5033957;28;20299;-41
2021/06/14 04:42:37;;;;;;;6.43;4.15;;;15.30;96.90;;;;;;5033951;28;20750;-41
2021/06/14 04:45:08;;;;;;;5.18;4.65;;;15.30;96.70;;;;;;5034206;28;20296;-40
2021/06/14 04:47:36;;;;;;;6.13;4.00;;;15.40;96.60;;;;;;5033619;28;20764;-40
2021/06/14 04:50:05;;;;;;;6.03;4.18;;;15.40;96.50;;;;;;5033347;28;20319;-40
2021/06/14 04:52:33;;;;;;;6.53;4.20;;;15.50;96.50;;;;;;5033853;28;20213;-41
2021/06/14 04:55:01;;;;;;;7.38;4.40;;;15.50;96.40;;;;;;5033310;28;20735;-40
2021/06/14 04:57:28;;;;;;;7.15;5.43;;;15.60;96.40;;;;;;5033968;28;20208;-40
2021/06/14 04:59:57;;;;;;;5.15;4.55;;;15.60;96.30;;;;;;5033971;28;20228;-40
2021/06/14 05:02:26;;;;;;;9.48;6.05;;;15.70;96.20;;;;;;5033758;28;20205;-40
2021/06/14 05:04:54;;;;;;;5.90;5.13;;;15.70;96.10;;;;;;5032241;28;20300;-40
2021/06/14 05:07:22;;;;;;;5.57;5.05;;;15.80;96.10;;;;;;5032811;28;20273;-40
2021/06/14 05:09:50;;;;;;;11.05;6.35;;;15.90;96.00;;;;;;5032718;28;20321;-40
2021/06/14 05:12:18;;;;;;;15.70;5.40;;;16.00;95.90;;;;;;5032863;28;20565;-40
2021/06/14 05:14:49;;;;;;;6.85;5.43;;;16.00;95.80;;;;;;5032929;28;20248;-40
2021/06/14 05:17:17;;;;;;;10.07;5.15;;;16.10;95.70;;;;;;5033307;28;20303;-41
2021/06/14 05:19:47;;;;;;;11.15;6.13;;;16.20;95.60;;;;;;5033158;28;20292;-40
2021/06/14 05:22:15;;;;;;;8.45;6.35;;;16.30;95.50;;;;;;5032864;28;20335;-40
2021/06/14 05:24:43;;;;;;;11.85;7.60;;;16.30;95.40;;;;;;5032781;28;20744;-42
2021/06/14 05:27:11;;;;;;;9.73;7.30;;;16.40;95.50;;;;;;5032895;28;20231;-43
2021/06/14 05:29:39;;;;;;;7.75;7.03;;;16.40;95.50;;;;;;5032608;28;20263;-40
2021/06/14 05:32:08;;;;;;;21.35;9.98;;;16.50;95.40;;;;;;5032834;28;20291;-39
2021/06/14 05:34:36;;;;;;;6.75;5.95;;;16.70;95.40;;;;;;5032801;28;20209;-40
2021/06/14 05:37:06;;;;;;;12.63;5.75;;;16.80;95.40;;;;;;5032663;28;20307;-40
2021/06/14 05:39:34;;;;;;;8.48;5.50;;;16.80;95.20;;;;;;5032601;28;20249;-40
2021/06/14 05:42:02;;;;;;;11.98;6.82;;;16.90;95.10;;;;;;5032855;28;20301;-40
2021/06/14 05:44:30;;;;;;;5.75;5.13;;;17.00;95.10;;;;;;5032513;28;20636;-41
2021/06/14 05:46:58;;;;;;;6.47;5.60;;;17.00;95.00;;;;;;5032222;28;20315;-41
2021/06/14 05:49:26;;;;;;;8.98;5.10;;;17.00;95.10;;;;;;5032238;28;20208;-40
2021/06/14 05:51:54;;;;;;;9.35;6.15;;;17.00;95.10;;;;;;5032040;28;20308;-40
2021/06/14 05:54:23;;;;;;;8.82;5.00;;;17.00;95.10;;;;;;5032460;28;20224;-41
2021/06/14 05:56:51;;;;;;;7.88;5.20;;;17.10;95.10;;;;;;5032037;28;20763;-41
2021/06/14 05:59:19;;;;;;;9.52;5.80;;;17.20;95.10;;;;;;5032340;28;20291;-41
2021/06/14 06:01:47;;;;;;;9.15;6.28;;;17.20;95.10;;;;;;5032317;28;20251;-41
2021/06/14 06:04:17;;;;;;;8.80;6.68;;;17.30;95.10;;;;;;5032243;28;20756;-42
2021/06/14 06:06:45;;;;;;;8.38;5.10;;;17.40;95.00;;;;;;5032056;28;20675;-41
2021/06/14 06:09:12;;;;;;;24.42;6.47;;;17.40;94.90;;;;;;5032321;28;20559;-43
2021/06/14 06:11:42;;;;;;;11.82;6.82;;;17.50;94.90;;;;;;5032037;28;20323;-42
2021/06/14 06:14:10;;;;;;;16.95;5.90;;;17.50;94.70;;;;;;5031986;28;20212;-41
2021/06/14 06:16:38;;;;;;;6.53;5.63;;;17.60;94.60;;;;;;5031915;28;20308;-41
2021/06/14 06:19:06;;;;;;;7.75;5.55;;;17.60;94.60;;;;;;5031806;28;20596;-41
2021/06/14 06:21:34;;;;;;;8.43;5.03;;;17.70;94.50;;;;;;5031814;28;20256;-41
2021/06/14 06:24:03;;;;;;;6.50;5.30;;;17.70;94.40;;;;;;5032115;28;20212;-47
2021/06/14 06:26:31;;;;;;;6.97;5.57;;;17.70;94.50;;;;;;5031950;28;20369;-44
2021/06/14 06:29:00;;;;;;;13.98;6.18;;;17.80;94.50;;;;;;5031807;28;20423;-44
2021/06/14 06:31:32;;;;;;;11.02;4.85;;;17.90;94.40;;;;;;5031785;28;20228;-43
2021/06/14 06:34:00;;;;;;;7.18;5.80;;;18.10;94.00;;;;;;5031967;28;20220;-42
2021/06/14 06:36:29;;;;;;;9.13;5.03;;;18.10;94.20;;;;;;5031906;28;20299;-42
2021/06/14 06:38:57;;;;;;;5.97;4.70;;;18.20;94.00;;;;;;5031943;28;20612;-44
2021/06/14 06:41:25;;;;;;;7.25;4.20;;;18.20;93.80;;;;;;5031530;28;20631;-45
2021/06/14 06:43:52;;;;;;;5.20;4.43;;;18.30;93.70;;;;;;5031665;28;20219;-42
2021/06/14 06:46:22;;;;;;;5.60;3.47;;;18.30;93.50;;;;;;5031773;28;20251;-43
2021/06/14 06:48:50;;;;;;;6.90;4.53;;;18.40;93.40;;;;;;5031808;28;20534;-43
2021/06/14 06:51:18;;;;;;;6.32;4.80;;;18.50;93.40;;;;;;5031617;28;20637;-43
2021/06/14 06:53:46;;;;;;;9.40;5.05;;;18.50;93.40;;;;;;5031511;28;20625;-42
2021/06/14 06:56:14;;;;;;;5.85;4.35;;;18.60;93.30;;;;;;5031425;28;20632;-42
2021/06/14 06:58:42;;;;;;;6.43;3.95;;;18.70;93.00;;;;;;5031545;28;20750;-44
2021/06/14 07:01:10;;;;;;;4.45;3.60;;;18.80;92.80;;;;;;5031674;28;20213;-42
2021/06/14 07:03:41;;;;;;;6.05;4.20;;;18.90;92.50;;;;;;5031394;28;20224;-43
2021/06/14 07:06:09;;;;;;;5.75;3.88;;;18.90;92.40;;;;;;5031697;28;20248;-42
2021/06/14 07:08:37;;;;;;;6.18;3.50;;;19.00;92.20;;;;;;5031843;28;20262;-42
2021/06/14 07:11:05;;;;;;;8.90;4.10;;;19.10;92.00;;;;;;5031493;28;20282;-41
2021/06/14 07:13:33;;;;;;;4.47;3.50;;;19.20;91.80;;;;;;5031623;28;20215;-44
2021/06/14 07:16:01;;;;;;;6.18;3.80;;;19.20;91.40;;;;;;5031252;28;20731;-44
2021/06/14 07:18:29;;;;;;;7.75;3.42;;;19.20;91.20;;;;;;5031158;28;20300;-42
2021/06/14 07:20:59;;;;;;;6.40;3.53;;;19.30;91.10;;;;;;5031271;28;20229;-41
2021/06/14 07:23:27;;;;;;;4.80;3.78;;;19.40;90.90;;;;;;5031420;28;20299;-44
2021/06/14 07:25:55;;;;;;;4.18;3.45;;;19.50;90.80;;;;;;5031184;28;20307;-44
2021/06/14 07:28:23;;;;;;;6.38;3.63;;;19.60;90.60;;;;;;5033637;28;20204;-48
2021/06/14 07:30:51;;;;;;;5.68;4.20;;;19.70;90.40;;;;;;5034990;28;20282;-43
2021/06/14 07:33:19;;;;;;;7.32;4.40;;;19.80;90.10;;;;;;5034924;28;20308;-44
2021/06/14 07:35:47;;;;;;;6.50;3.05;;;19.80;89.70;;;;;;5035368;28;20271;-43
2021/06/14 07:38:17;;;;;;;8.82;4.18;;;19.80;89.20;;;;;;5035450;28;20291;-44
2021/06/14 07:40:45;;;;;;;4.32;3.90;;;19.90;89.30;;;;;;5035038;28;20213;-42
2021/06/14 07:43:14;;;;;;;5.93;3.50;;;19.90;91.80;;;;;;5035073;28;20213;-44
2021/06/14 07:45:44;;;;;;;9.15;3.60;;;20.00;88.50;;;;;;5034927;28;20244;-43
2021/06/14 07:48:13;;;;;;;5.55;3.60;;;20.10;88.20;;;;;;5034897;28;20342;-43
2021/06/14 07:50:43;;;;;;;6.00;3.17;;;20.20;87.70;;;;;;5034479;28;20634;-43
2021/06/14 07:53:12;;;;;;;10.02;4.13;;;20.30;86.10;;;;;;5034848;28;20213;-45
2021/06/14 07:55:42;;;;;;;6.80;4.15;;;20.30;86.90;;;;;;5035069;28;20563;-46
2021/06/14 07:58:10;;;;;;;5.20;3.30;;;20.40;86.60;;;;;;5034637;28;20295;-44
2021/06/14 08:00:40;;;;;;;5.20;3.78;;;20.40;85.70;;;;;;5034634;28;20244;-44
2021/06/14 08:03:09;;;;;;;5.95;3.72;;;20.50;85.40;;;;;;5034792;28;20295;-45
2021/06/14 08:05:38;;;;;;;4.57;3.13;;;20.50;85.00;;;;;;5035141;28;20747;-44
2021/06/14 08:08:14;;;;;;;6.30;3.78;;;20.60;84.70;;;;;;5034680;28;20299;-43
2021/06/14 08:10:45;;;;;;;5.47;3.60;;;20.60;84.70;;;;;;5034803;28;20667;-47
2021/06/14 08:13:13;;;;;;;4.20;3.75;;;20.60;84.30;;;;;;5035918;28;20240;-43
2021/06/14 08:15:41;;;;;;;10.27;4.68;;;20.70;83.70;;;;;;5034740;28;20319;-43
2021/06/14 08:18:22;;;;;;;6.20;3.17;;;20.90;83.60;;;;;;5035498;28;20209;-44
2021/06/14 08:21:04;;;;;;;5.15;2.88;;;20.90;83.20;;;;;;5034893;28;20244;-48
2021/06/14 08:26:25;;;;;;;15.45;4.25;;;20.90;82.50;;;;;;5034776;28;20228;-45
2021/06/14 08:28:53;;;;;;;4.72;2.90;;;21.00;82.50;;;;;;5034805;28;20296;-44
2021/06/14 08:31:22;;;;;;;6.47;3.55;;;21.00;81.90;;;;;;5035965;28;20257;-44
2021/06/14 08:33:50;;;;;;;17.95;5.80;;;21.10;81.50;;;;;;5035083;28;20223;-44
2021/06/14 08:36:19;;;;;;;5.25;3.38;;;21.10;81.20;;;;;;5035698;28;20275;-41
2021/06/14 08:38:47;;;;;;;8.20;4.82;;;21.20;81.10;;;;;;5033746;28;20209;-44
2021/06/14 08:41:16;;;;;;;5.38;3.63;;;21.30;81.30;;;;;;5033809;28;20300;-42
2021/06/14 08:43:48;;;;;;;5.50;3.80;;;21.40;81.30;;;;;;5034221;28;20256;-40
2021/06/14 08:46:16;;;;;;;7.75;3.42;;;21.50;81.00;;;;;;5033910;28;20738;-39
2021/06/14 08:48:45;;;;;;;4.72;3.55;;;21.50;80.70;;;;;;5034001;28;20213;-42
2021/06/14 08:51:14;;;;;;;8.85;4.10;;;21.60;87.20;;;;;;5033844;28;20215;-40
2021/06/14 08:53:43;;;;;;;9.88;3.92;;;21.70;80.40;;;;;;5033896;28;20244;-40
2021/06/14 08:56:11;;;;;;;22.13;5.18;;;21.80;80.40;;;;;;5033674;28;20553;-41
2021/06/14 08:58:39;;;;;;;8.40;3.70;;;21.90;80.20;;;;;;5033601;28;20215;-42
2021/06/14 09:01:11;;;;;;;6.95;3.45;;;22.00;80.20;;;;;;5033599;28;20303;-43
2021/06/14 09:03:39;;;;;;;5.63;3.65;;;22.00;79.60;;;;;;5033750;28;20204;-43
2021/06/14 09:06:07;;;;;;;7.47;3.40;;;22.00;79.50;;;;;;5033632;28;20216;-41
2021/06/14 09:08:35;;;;;;;5.30;2.92;;;21.90;79.10;;;;;;5033635;28;20506;-42
2021/06/14 09:11:04;;;;;;;27.05;13.98;;;21.90;78.90;;;;;;5033330;28;20219;-42
2021/06/14 09:13:33;;;;;;;13.70;4.13;;;22.00;78.90;;;;;;5037599;28;20224;-42
2021/06/14 09:16:07;;;;;;;8.63;3.70;;;22.10;78.40;;;;;;5052816;28;20204;-44
2021/06/14 09:18:39;;;;;;;6.88;3.60;;;22.20;77.70;;;;;;5053395;28;20208;-43
2021/06/14 09:21:09;;;;;;;7.50;3.65;;;22.20;77.40;;;;;;5053183;28;20248;-42
2021/06/14 09:23:49;;;;;;;8.35;4.25;;;22.20;77.10;;;;;;5053053;28;20287;-42
2021/06/14 09:26:27;;;;;;;6.55;3.70;;;22.20;76.70;;;;;;5053313;28;20228;-44
2021/06/14 09:28:57;;;;;;;5.82;3.47;;;22.20;76.60;;;;;;5053002;28;20295;-45
2021/06/14 09:31:29;;;;;;;7.93;4.03;;;22.20;76.40;;;;;;5053013;28;20215;-42
2021/06/14 09:33:58;;;;;;;6.03;3.17;;;22.30;75.80;;;;;;5053105;28;20679;-43
2021/06/14 09:36:27;;;;;;;5.45;3.67;;;22.30;75.30;;;;;;5052785;28;20208;-42
2021/06/14 09:39:06;;;;;;;9.00;4.93;;;22.30;75.20;;;;;;5053149;28;20215;-43
2021/06/14 09:41:39;;;;;;;11.32;3.85;;;22.40;74.80;;;;;;5053416;28;20208;-44
2021/06/14 09:44:07;;;;;;;6.40;4.43;;;22.40;74.80;;;;;;5052663;28;20227;-44
2021/06/14 09:46:36;;;;;;;6.90;4.18;;;22.40;74.50;;;;;;5052892;28;20215;-43
2021/06/14 09:49:06;;;;;;;8.25;3.40;;;22.50;74.60;;;;;;5052526;28;20208;-42
2021/06/14 09:51:35;;;;;;;9.52;5.15;;;22.60;74.20;;;;;;5051493;28;20219;-44
2021/06/14 09:54:04;;;;;;;4.53;3.20;;;22.70;74.10;;;;;;5052466;28;20208;-43
2021/06/14 09:56:35;;;;;;;8.13;3.45;;;22.70;73.70;;;;;;5052025;28;20212;-43
2021/06/14 09:59:07;;;;;;;6.90;4.22;;;22.80;73.10;;;;;;5051973;28;20212;-45
2021/06/14 10:01:37;;;;;;;9.43;3.90;;;22.90;73.00;;;;;;5052101;28;20245;-44
2021/06/14 10:04:10;;;;;;;10.90;3.72;;;22.90;72.70;;;;;;5052239;28;20294;-43
2021/06/14 10:06:42;;;;;;;8.73;5.10;;;22.90;72.70;;;;;;5052194;28;20297;-44
2021/06/14 10:09:13;;;;;;;8.50;4.15;;;23.00;72.60;;;;;;5051816;28;20294;-43
2021/06/14 10:11:43;;;;;;;3.83;3.08;;;23.10;72.40;;;;;;5051808;28;20295;-44
2021/06/14 10:14:13;;;;;;;3.97;2.95;;;23.10;71.70;;;;;;5052515;28;20239;-44
2021/06/14 10:16:42;;;;;;;6.70;3.45;;;23.10;71.50;;;;;;5052546;28;20257;-44
2021/06/14 10:19:14;;;;;;;4.25;3.45;;;23.00;71.30;;;;;;5051941;28;20211;-45
2021/06/14 10:21:43;;;;;;;7.28;4.07;;;23.00;71.40;;;;;;5051710;28;20610;-45
2021/06/14 10:24:13;;;;;;;6.00;3.78;;;23.10;70.90;;;;;;5051849;28;20206;-43
2021/06/14 10:26:43;;;;;;;3.90;3.60;;;23.10;70.30;;;;;;5051952;28;20216;-43
2021/06/14 10:29:14;;;;;;;4.20;3.40;;;23.10;70.10;;;;;;5051708;28;20303;-43
2021/06/14 10:31:43;;;;;;;6.68;4.07;;;23.10;69.70;;;;;;5052135;28;20247;-43
2021/06/14 10:34:14;;;;;;;5.60;4.13;;;23.10;69.00;;;;;;5053874;28;20227;-43
2021/06/14 10:36:45;;;;;;;5.65;2.88;;;23.10;68.60;;;;;;5051614;28;20378;-44
2021/06/14 10:39:15;;;;;;;5.07;3.40;;;23.20;68.20;;;;;;5051865;28;20212;-47
2021/06/14 10:41:45;;;;;;;8.65;4.25;;;23.20;67.90;;;;;;5051781;28;20242;-44
2021/06/14 10:44:13;;;;;;;11.43;5.15;;;23.20;68.10;;;;;;5051721;28;20215;-45
2021/06/14 10:46:45;;;;;;;2.67;2.47;;;23.20;68.10;;;;;;5051767;28;20204;-46
2021/06/14 10:49:15;;;;;;;7.47;3.40;;;23.30;67.30;;;;;;5051335;28;20207;-47
2021/06/14 10:51:45;;;;;;;8.20;3.55;;;23.30;67.30;;;;;;5051450;28;20208;-43
2021/06/14 10:54:16;;;;;;;8.07;3.60;;;23.30;67.60;;;;;;5051681;28;20270;-45
2021/06/14 10:56:45;;;;;;;5.05;3.30;;;23.30;67.40;;;;;;5051520;28;20287;-43
2021/06/14 10:59:15;;;;;;;4.93;3.33;;;23.40;66.70;;;;;;5052211;28;20208;-45
2021/06/14 11:01:44;;;;;;;6.13;3.10;;;23.40;65.10;;;;;;5051544;28;20247;-46
2021/06/14 11:04:25;;;;;;;7.20;4.75;;;23.50;64.50;;;;;;5055289;28;20548;-45
2021/06/14 11:06:55;;;;;;;5.30;3.13;;;23.60;64.10;;;;;;5055931;28;20239;-44
2021/06/14 11:09:23;;;;;;;3.45;2.67;;;23.60;64.20;;;;;;5055327;28;20345;-44
2021/06/14 11:11:54;;;;;;;4.97;3.05;;;23.60;63.60;;;;;;5055303;28;20249;-43
2021/06/14 11:14:32;;;;;;;12.65;5.03;;;23.70;63.40;;;;;;5055274;28;20512;-43
2021/06/14 11:17:19;;;;;;;4.97;2.78;;;23.70;62.80;;;;;;5055573;28;20604;-44
2021/06/14 11:19:51;;;;;;;6.93;3.28;;;23.80;62.50;;;;;;5055279;28;20671;-45
2021/06/14 11:22:20;;;;;;;8.93;5.10;;;23.80;63.00;;;;;;5055103;28;20239;-44
2021/06/14 11:24:49;;;;;;;14.88;3.92;;;23.90;63.10;;;;;;5055016;28;20251;-46
2021/06/14 11:27:17;;;;;;;3.42;2.83;;;23.90;63.00;;;;;;5055540;28;20365;-48
2021/06/14 11:29:54;;;;;;;4.70;3.17;;;24.00;62.70;;;;;;5055193;28;20222;-44
2021/06/14 11:32:23;;;;;;;4.00;3.60;;;23.90;61.80;;;;;;5054972;28;20746;-47
2021/06/14 11:34:55;;;;;;;7.55;3.60;;;23.90;61.30;;;;;;5055206;28;20214;-43
2021/06/14 11:37:36;;;;;;;4.13;3.63;;;23.90;61.10;;;;;;5054713;28;20212;-48
2021/06/14 11:40:05;;;;;;;3.53;2.58;;;23.90;61.20;;;;;;5054920;28;20307;-45
2021/06/14 11:42:45;;;;;;;7.20;2.92;;;23.90;61.40;;;;;;5054762;28;20690;-43
2021/06/14 11:45:31;;;;;;;5.28;2.70;;;23.90;60.60;;;;;;5054662;28;20203;-45
2021/06/14 11:48:01;;;;;;;5.38;2.58;;;23.90;60.00;;;;;;5055102;28;20343;-47
2021/06/14 11:50:33;;;;;;;5.85;2.50;;;23.90;59.50;;;;;;5054854;28;20214;-47
2021/06/14 11:53:03;;;;;;;6.72;3.95;;;23.90;59.10;;;;;;5054745;28;20224;-46
2021/06/14 11:55:38;;;;;;;6.28;2.65;;;24.00;59.30;;;;;;5054645;28;20624;-43
2021/06/14 11:58:08;;;;;;;5.63;2.50;;;24.00;59.50;;;;;;5054705;28;20642;-45
2021/06/14 12:00:38;;;;;;;3.47;2.42;;;24.20;59.50;;;;;;5054767;28;20222;-45
2021/06/14 12:03:17;;;;;;;13.75;3.15;;;24.20;59.50;;;;;;5054641;28;20210;-43
2021/06/14 12:05:47;;;;;;;10.88;2.88;;;24.30;59.10;;;;;;5054409;28;20282;-43
2021/06/14 12:08:19;;;;;;;4.60;3.25;;;24.30;59.40;;;;;;5054386;28;20216;-43
2021/06/14 12:10:48;;;;;;;4.20;2.88;;;24.30;59.00;;;;;;5054485;28;20613;-43
2021/06/14 12:13:27;;;;;;;3.95;2.33;;;24.30;59.40;;;;;;5054013;28;20235;-43
2021/06/14 12:15:56;;;;;;;7.45;3.45;;;24.30;59.40;;;;;;5054329;28;20204;-42
2021/06/14 12:18:27;;;;;;;5.22;3.15;;;24.20;59.30;;;;;;5054306;28;20208;-45
2021/06/14 12:21:00;;;;;;;8.85;3.83;;;24.30;59.30;;;;;;5054075;28;20283;-42
2021/06/14 12:23:33;;;;;;;4.97;2.42;;;24.30;58.70;;;;;;5053862;28;20683;-44
2021/06/14 12:26:07;;;;;;;3.13;2.38;;;24.40;58.00;;;;;;5054103;28;20599;-44
2021/06/14 12:28:36;;;;;;;7.18;3.10;;;24.50;57.80;;;;;;5054292;28;20659;-44
2021/06/14 12:31:06;;;;;;;4.03;2.47;;;24.50;57.20;;;;;;5054154;28;20290;-45
2021/06/14 12:33:36;;;;;;;5.88;2.50;;;24.60;56.50;;;;;;5053882;28;20327;-43
2021/06/14 12:36:07;;;;;;;3.38;2.20;;;24.60;56.20;;;;;;5054061;28;20216;-43
2021/06/14 12:38:35;;;;;;;3.72;2.15;;;24.60;56.20;;;;;;5054067;28;20207;-46
2021/06/14 12:41:05;;;;;;;5.95;2.83;;;24.60;56.50;;;;;;5053874;28;20307;-43
2021/06/14 12:43:33;;;;;;;6.18;2.47;;;24.60;56.30;;;;;;5053974;28;20211;-43
2021/06/14 12:46:01;;;;;;;6.28;2.97;;;24.70;55.80;;;;;;5053566;28;20209;-47
2021/06/14 12:48:29;;;;;;;4.13;2.17;;;24.70;55.60;;;;;;5053617;28;20330;-46
2021/06/14 12:50:58;;;;;;;2.53;2.33;;;24.80;55.30;;;;;;5053486;28;20243;-43
2021/06/14 12:53:29;;;;;;;7.50;3.85;;;24.90;54.50;;;;;;5053318;28;20214;-43
2021/06/14 12:55:59;;;;;;;3.85;2.25;;;24.90;53.10;;;;;;5053589;28;20295;-42
2021/06/14 12:58:29;;;;;;;2.65;2.25;;;25.00;51.90;;;;;;5053051;28;20626;-44
2021/06/14 13:01:01;;;;;;;2.80;1.90;;;25.20;51.10;;;;;;5053600;28;20277;-47